sensor_id;sensor_type;location;lat;lon;timestamp;temperature;humidity
9810;DHT22;4944;52.514;13.192;2023-04-08T00:01:32;6.90;99.90
9810;DHT22;4944;52.514;13.192;2023-04-08T00:04:00;6.90;99.90
9810;DHT22;4944;52.514;13.192;2023-04-08T00:06:27;6.90;99.90
9810;DHT22;4944;52.514;13.192;2023-04-08T00:08:55;6.80;99.90
9810;DHT22;4944;52.514;13.192;2023-04-08T00:11:22;6.90;99.90
9810;DHT22;4944;52.514;13.192;2023-04-08T00:13:49;6.80;99.90
9810;DHT22;4944;52.514;13.192;2023-04-08T00:16:16;6.90;99.90
9810;DHT22;4944;52.514;13.192;2023-04-08T00:18:43;6.90;99.90
9810;DHT22;4944;52.514;13.192;2023-04-08T00:21:10;6.90;99.90
9810;DHT22;4944;52.514;13.192;2023-04-08T00:23:38;6.90;99.90
9810;DHT22;4944;52.514;13.192;2023-04-08T00:26:06;6.80;99.90
9810;DHT22;4944;52.514;13.192;2023-04-08T00:28:33;6.80;99.90
9810;DHT22;4944;52.514;13.192;2023-04-08T00:31:00;6.80;99.90
9810;DHT22;4944;52.514;13.192;2023-04-08T00:33:27;6.80;99.90
9810;DHT22;4944;52.514;13.192;2023-04-08T00:35:54;6.80;99.90
9810;DHT22;4944;52.514;13.192;2023-04-08T00:38:20;6.80;99.90
9810;DHT22;4944;52.514;13.192;2023-04-08T00:40:47;6.80;99.90
9810;DHT22;4944;52.514;13.192;2023-04-08T00:43:16;6.80;99.90
9810;DHT22;4944;52.514;13.192;2023-04-08T00:45:45;6.80;99.90
9810;DHT22;4944;52.514;13.192;2023-04-08T00:48:12;6.80;99.90
9810;DHT22;4944;52.514;13.192;2023-04-08T00:50:39;6.80;99.90
9810;DHT22;4944;52.514;13.192;2023-04-08T00:53:06;6.80;99.90
9810;DHT22;4944;52.514;13.192;2023-04-08T00:55:33;6.80;99.90
9810;DHT22;4944;52.514;13.192;2023-04-08T00:58:01;6.80;99.90
9810;DHT22;4944;52.514;13.192;2023-04-08T01:00:30;6.80;99.90
9810;DHT22;4944;52.514;13.192;2023-04-08T01:03:06;6.80;99.90
9810;DHT22;4944;52.514;13.192;2023-04-08T01:05:42;6.80;99.90
9810;DHT22;4944;52.514;13.192;2023-04-08T01:08:16;6.80;99.90
9810;DHT22;4944;52.514;13.192;2023-04-08T01:10:44;6.80;99.90
9810;DHT22;4944;52.514;13.192;2023-04-08T01:13:15;6.80;99.90
9810;DHT22;4944;52.514;13.192;2023-04-08T01:15:46;6.80;99.90
9810;DHT22;4944;52.514;13.192;2023-04-08T01:18:14;6.80;99.90
9810;DHT22;4944;52.514;13.192;2023-04-08T01:20:43;6.80;99.90
9810;DHT22;4944;52.514;13.192;2023-04-08T01:23:17;6.80;99.90
9810;DHT22;4944;52.514;13.192;2023-04-08T01:25:48;6.80;99.90
9810;DHT22;4944;52.514;13.192;2023-04-08T01:28:17;6.80;99.90
9810;DHT22;4944;52.514;13.192;2023-04-08T01:30:46;6.70;99.90
9810;DHT22;4944;52.514;13.192;2023-04-08T01:33:16;6.70;99.90
9810;DHT22;4944;52.514;13.192;2023-04-08T01:35:44;6.70;99.90
9810;DHT22;4944;52.514;13.192;2023-04-08T01:38:16;6.70;99.90
9810;DHT22;4944;52.514;13.192;2023-04-08T01:40:46;6.70;99.90
9810;DHT22;4944;52.514;13.192;2023-04-08T01:43:15;6.70;99.90
9810;DHT22;4944;52.514;13.192;2023-04-08T01:45:44;6.70;99.90
9810;DHT22;4944;52.514;13.192;2023-04-08T01:48:13;6.70;99.90
9810;DHT22;4944;52.514;13.192;2023-04-08T01:50:41;6.70;99.90
9810;DHT22;4944;52.514;13.192;2023-04-08T01:53:09;6.70;99.90
9810;DHT22;4944;52.514;13.192;2023-04-08T01:55:37;6.70;99.90
9810;DHT22;4944;52.514;13.192;2023-04-08T01:58:10;6.70;99.90
9810;DHT22;4944;52.514;13.192;2023-04-08T02:00:39;6.70;99.90
9810;DHT22;4944;52.514;13.192;2023-04-08T02:03:10;6.70;99.90
9810;DHT22;4944;52.514;13.192;2023-04-08T02:05:38;6.70;99.90
9810;DHT22;4944;52.514;13.192;2023-04-08T02:08:05;6.70;99.90
9810;DHT22;4944;52.514;13.192;2023-04-08T02:10:32;6.70;99.90
9810;DHT22;4944;52.514;13.192;2023-04-08T02:12:59;6.70;99.90
9810;DHT22;4944;52.514;13.192;2023-04-08T02:15:33;6.70;99.90
9810;DHT22;4944;52.514;13.192;2023-04-08T02:18:07;6.70;99.90
9810;DHT22;4944;52.514;13.192;2023-04-08T02:20:37;6.70;99.90
9810;DHT22;4944;52.514;13.192;2023-04-08T02:23:08;6.80;99.90
9810;DHT22;4944;52.514;13.192;2023-04-08T02:25:39;6.80;99.90
9810;DHT22;4944;52.514;13.192;2023-04-08T02:28:09;6.80;99.90
9810;DHT22;4944;52.514;13.192;2023-04-08T02:30:41;6.80;99.90
9810;DHT22;4944;52.514;13.192;2023-04-08T02:33:10;6.80;99.90
9810;DHT22;4944;52.514;13.192;2023-04-08T02:35:40;6.80;99.90
9810;DHT22;4944;52.514;13.192;2023-04-08T02:38:08;6.70;99.90
9810;DHT22;4944;52.514;13.192;2023-04-08T02:40:36;6.70;99.90
9810;DHT22;4944;52.514;13.192;2023-04-08T02:43:02;6.70;99.90
9810;DHT22;4944;52.514;13.192;2023-04-08T02:45:31;6.70;99.90
9810;DHT22;4944;52.514;13.192;2023-04-08T02:48:00;6.60;99.90
9810;DHT22;4944;52.514;13.192;2023-04-08T02:50:27;6.60;99.90
9810;DHT22;4944;52.514;13.192;2023-04-08T02:52:54;6.60;99.90
9810;DHT22;4944;52.514;13.192;2023-04-08T02:55:21;6.60;99.90
9810;DHT22;4944;52.514;13.192;2023-04-08T02:57:49;6.60;99.90
9810;DHT22;4944;52.514;13.192;2023-04-08T03:00:16;6.60;99.90
9810;DHT22;4944;52.514;13.192;2023-04-08T03:02:43;6.70;99.90
9810;DHT22;4944;52.514;13.192;2023-04-08T03:05:11;6.70;99.90
9810;DHT22;4944;52.514;13.192;2023-04-08T03:07:38;6.70;99.90
9810;DHT22;4944;52.514;13.192;2023-04-08T03:10:06;6.70;99.90
9810;DHT22;4944;52.514;13.192;2023-04-08T03:12:33;6.70;99.90
9810;DHT22;4944;52.514;13.192;2023-04-08T03:15:00;6.70;99.90
9810;DHT22;4944;52.514;13.192;2023-04-08T03:17:28;6.70;99.90
9810;DHT22;4944;52.514;13.192;2023-04-08T03:19:57;6.70;99.90
9810;DHT22;4944;52.514;13.192;2023-04-08T03:22:25;6.70;99.90
9810;DHT22;4944;52.514;13.192;2023-04-08T03:24:52;6.70;99.90
9810;DHT22;4944;52.514;13.192;2023-04-08T03:27:19;6.70;99.90
9810;DHT22;4944;52.514;13.192;2023-04-08T03:29:46;6.70;99.90
9810;DHT22;4944;52.514;13.192;2023-04-08T03:32:12;6.70;99.90
9810;DHT22;4944;52.514;13.192;2023-04-08T03:34:39;6.70;99.90
9810;DHT22;4944;52.514;13.192;2023-04-08T03:37:06;6.70;99.90
9810;DHT22;4944;52.514;13.192;2023-04-08T03:39:35;6.70;99.90
9810;DHT22;4944;52.514;13.192;2023-04-08T03:42:02;6.70;99.90
9810;DHT22;4944;52.514;13.192;2023-04-08T03:44:29;6.70;99.90
9810;DHT22;4944;52.514;13.192;2023-04-08T03:46:55;6.70;99.90
9810;DHT22;4944;52.514;13.192;2023-04-08T03:49:22;6.70;99.90
9810;DHT22;4944;52.514;13.192;2023-04-08T03:51:49;6.70;99.90
9810;DHT22;4944;52.514;13.192;2023-04-08T03:54:16;6.70;99.90
9810;DHT22;4944;52.514;13.192;2023-04-08T03:56:45;6.70;99.90
9810;DHT22;4944;52.514;13.192;2023-04-08T03:59:12;6.70;99.90
9810;DHT22;4944;52.514;13.192;2023-04-08T04:01:38;6.70;99.90
9810;DHT22;4944;52.514;13.192;2023-04-08T04:04:05;6.70;99.90
9810;DHT22;4944;52.514;13.192;2023-04-08T04:06:32;6.70;99.90
9810;DHT22;4944;52.514;13.192;2023-04-08T04:08:59;6.70;99.90
9810;DHT22;4944;52.514;13.192;2023-04-08T04:11:26;6.70;99.90
9810;DHT22;4944;52.514;13.192;2023-04-08T04:13:54;6.70;99.90
9810;DHT22;4944;52.514;13.192;2023-04-08T04:16:24;6.60;99.90
9810;DHT22;4944;52.514;13.192;2023-04-08T04:18:51;6.70;99.90
9810;DHT22;4944;52.514;13.192;2023-04-08T04:21:18;6.70;99.90
9810;DHT22;4944;52.514;13.192;2023-04-08T04:23:47;6.70;99.90
9810;DHT22;4944;52.514;13.192;2023-04-08T04:26:14;6.70;99.90
9810;DHT22;4944;52.514;13.192;2023-04-08T04:28:41;6.70;99.90
9810;DHT22;4944;52.514;13.192;2023-04-08T04:31:17;6.70;99.90
9810;DHT22;4944;52.514;13.192;2023-04-08T04:33:44;6.70;99.90
9810;DHT22;4944;52.514;13.192;2023-04-08T04:36:11;6.70;99.90
9810;DHT22;4944;52.514;13.192;2023-04-08T04:38:38;6.70;99.90
9810;DHT22;4944;52.514;13.192;2023-04-08T04:41:05;6.70;99.90
9810;DHT22;4944;52.514;13.192;2023-04-08T04:43:32;6.70;99.90
9810;DHT22;4944;52.514;13.192;2023-04-08T04:45:59;6.70;99.90
9810;DHT22;4944;52.514;13.192;2023-04-08T04:48:28;6.70;99.90
9810;DHT22;4944;52.514;13.192;2023-04-08T04:50:55;6.70;99.90
9810;DHT22;4944;52.514;13.192;2023-04-08T04:53:22;6.70;99.90
9810;DHT22;4944;52.514;13.192;2023-04-08T04:55:49;6.70;99.90
9810;DHT22;4944;52.514;13.192;2023-04-08T04:58:16;6.70;99.90
9810;DHT22;4944;52.514;13.192;2023-04-08T05:00:43;6.70;99.90
9810;DHT22;4944;52.514;13.192;2023-04-08T05:03:10;6.70;99.90
9810;DHT22;4944;52.514;13.192;2023-04-08T05:05:38;6.80;99.90
9810;DHT22;4944;52.514;13.192;2023-04-08T05:08:05;6.80;99.90
9810;DHT22;4944;52.514;13.192;2023-04-08T05:10:32;6.80;99.90
9810;DHT22;4944;52.514;13.192;2023-04-08T05:12:59;6.80;99.90
9810;DHT22;4944;52.514;13.192;2023-04-08T05:15:26;6.80;99.90
9810;DHT22;4944;52.514;13.192;2023-04-08T05:17:53;6.80;99.90
9810;DHT22;4944;52.514;13.192;2023-04-08T05:20:20;6.80;99.90
9810;DHT22;4944;52.514;13.192;2023-04-08T05:22:48;6.80;99.90
9810;DHT22;4944;52.514;13.192;2023-04-08T05:25:15;6.80;99.90
9810;DHT22;4944;52.514;13.192;2023-04-08T05:27:42;6.80;99.90
9810;DHT22;4944;52.514;13.192;2023-04-08T05:30:10;6.80;99.90
9810;DHT22;4944;52.514;13.192;2023-04-08T05:32:37;6.80;99.90
9810;DHT22;4944;52.514;13.192;2023-04-08T05:35:04;6.80;99.90
9810;DHT22;4944;52.514;13.192;2023-04-08T05:37:31;6.90;99.90
9810;DHT22;4944;52.514;13.192;2023-04-08T05:39:59;6.80;99.90
9810;DHT22;4944;52.514;13.192;2023-04-08T05:42:26;6.80;99.90
9810;DHT22;4944;52.514;13.192;2023-04-08T05:44:53;6.80;99.90
9810;DHT22;4944;52.514;13.192;2023-04-08T05:47:20;6.80;99.90
9810;DHT22;4944;52.514;13.192;2023-04-08T05:49:47;6.80;99.90
9810;DHT22;4944;52.514;13.192;2023-04-08T05:52:14;6.80;99.90
9810;DHT22;4944;52.514;13.192;2023-04-08T05:54:42;6.80;99.90
9810;DHT22;4944;52.514;13.192;2023-04-08T05:57:10;6.80;99.90
9810;DHT22;4944;52.514;13.192;2023-04-08T05:59:37;6.90;99.90
9810;DHT22;4944;52.514;13.192;2023-04-08T06:02:04;6.90;99.90
9810;DHT22;4944;52.514;13.192;2023-04-08T06:04:31;6.90;99.90
9810;DHT22;4944;52.514;13.192;2023-04-08T06:06:58;6.90;99.90
9810;DHT22;4944;52.514;13.192;2023-04-08T06:09:27;6.90;99.90
9810;DHT22;4944;52.514;13.192;2023-04-08T06:11:54;6.90;99.90
9810;DHT22;4944;52.514;13.192;2023-04-08T06:14:23;6.90;99.90
9810;DHT22;4944;52.514;13.192;2023-04-08T06:16:50;6.90;99.90
9810;DHT22;4944;52.514;13.192;2023-04-08T06:19:17;6.90;99.90
9810;DHT22;4944;52.514;13.192;2023-04-08T06:21:44;6.90;99.90
9810;DHT22;4944;52.514;13.192;2023-04-08T06:24:11;6.90;99.90
9810;DHT22;4944;52.514;13.192;2023-04-08T06:26:38;7.00;99.90
9810;DHT22;4944;52.514;13.192;2023-04-08T06:29:05;7.00;99.90
9810;DHT22;4944;52.514;13.192;2023-04-08T06:31:34;7.00;99.90
9810;DHT22;4944;52.514;13.192;2023-04-08T06:34:01;7.00;99.90
9810;DHT22;4944;52.514;13.192;2023-04-08T06:36:27;7.00;99.90
9810;DHT22;4944;52.514;13.192;2023-04-08T06:38:54;7.10;99.90
9810;DHT22;4944;52.514;13.192;2023-04-08T06:41:21;7.10;99.90
9810;DHT22;4944;52.514;13.192;2023-04-08T06:43:48;7.10;99.90
9810;DHT22;4944;52.514;13.192;2023-04-08T06:46:15;7.10;99.90
9810;DHT22;4944;52.514;13.192;2023-04-08T06:48:43;7.10;99.90
9810;DHT22;4944;52.514;13.192;2023-04-08T06:51:10;7.20;99.90
9810;DHT22;4944;52.514;13.192;2023-04-08T06:53:37;7.20;99.90
9810;DHT22;4944;52.514;13.192;2023-04-08T06:56:04;7.20;99.90
9810;DHT22;4944;52.514;13.192;2023-04-08T06:58:31;7.30;99.90
9810;DHT22;4944;52.514;13.192;2023-04-08T07:00:59;7.30;99.90
9810;DHT22;4944;52.514;13.192;2023-04-08T07:03:27;7.30;99.90
9810;DHT22;4944;52.514;13.192;2023-04-08T07:05:55;7.40;99.90
9810;DHT22;4944;52.514;13.192;2023-04-08T07:08:22;7.40;99.90
9810;DHT22;4944;52.514;13.192;2023-04-08T07:10:51;7.40;99.90
9810;DHT22;4944;52.514;13.192;2023-04-08T07:13:18;7.40;99.90
9810;DHT22;4944;52.514;13.192;2023-04-08T07:15:45;7.50;99.90
9810;DHT22;4944;52.514;13.192;2023-04-08T07:18:12;7.50;99.90
9810;DHT22;4944;52.514;13.192;2023-04-08T07:20:39;7.50;99.90
9810;DHT22;4944;52.514;13.192;2023-04-08T07:23:07;7.50;99.90
9810;DHT22;4944;52.514;13.192;2023-04-08T07:25:34;7.50;99.90
9810;DHT22;4944;52.514;13.192;2023-04-08T07:28:02;7.60;99.90
9810;DHT22;4944;52.514;13.192;2023-04-08T07:30:28;7.60;99.90
9810;DHT22;4944;52.514;13.192;2023-04-08T07:32:55;7.60;99.90
9810;DHT22;4944;52.514;13.192;2023-04-08T07:35:23;7.60;99.90
9810;DHT22;4944;52.514;13.192;2023-04-08T07:37:50;7.70;99.90
9810;DHT22;4944;52.514;13.192;2023-04-08T07:40:19;7.70;99.90
9810;DHT22;4944;52.514;13.192;2023-04-08T07:42:46;7.70;99.90
9810;DHT22;4944;52.514;13.192;2023-04-08T07:45:14;7.70;99.90
9810;DHT22;4944;52.514;13.192;2023-04-08T07:47:41;7.70;99.90
9810;DHT22;4944;52.514;13.192;2023-04-08T07:50:08;7.80;99.90
9810;DHT22;4944;52.514;13.192;2023-04-08T07:52:35;7.80;99.90
9810;DHT22;4944;52.514;13.192;2023-04-08T07:55:02;7.90;99.90
9810;DHT22;4944;52.514;13.192;2023-04-08T07:57:31;7.90;99.90
9810;DHT22;4944;52.514;13.192;2023-04-08T07:59:58;8.00;99.90
9810;DHT22;4944;52.514;13.192;2023-04-08T08:02:25;8.00;99.90
9810;DHT22;4944;52.514;13.192;2023-04-08T08:04:52;8.10;99.90
9810;DHT22;4944;52.514;13.192;2023-04-08T08:07:19;8.10;99.90
9810;DHT22;4944;52.514;13.192;2023-04-08T08:09:46;8.10;99.90
9810;DHT22;4944;52.514;13.192;2023-04-08T08:12:13;8.20;99.90
9810;DHT22;4944;52.514;13.192;2023-04-08T08:14:41;8.20;99.90
9810;DHT22;4944;52.514;13.192;2023-04-08T08:17:08;8.20;99.90
9810;DHT22;4944;52.514;13.192;2023-04-08T08:19:36;8.20;99.90
9810;DHT22;4944;52.514;13.192;2023-04-08T08:22:02;8.30;99.90
9810;DHT22;4944;52.514;13.192;2023-04-08T08:24:29;8.30;99.90
9810;DHT22;4944;52.514;13.192;2023-04-08T08:26:56;8.30;99.90
9810;DHT22;4944;52.514;13.192;2023-04-08T08:29:23;8.30;99.90
9810;DHT22;4944;52.514;13.192;2023-04-08T08:31:52;8.30;99.90
9810;DHT22;4944;52.514;13.192;2023-04-08T08:34:19;8.40;99.90
9810;DHT22;4944;52.514;13.192;2023-04-08T08:36:46;8.40;99.90
9810;DHT22;4944;52.514;13.192;2023-04-08T08:39:13;8.50;99.90
9810;DHT22;4944;52.514;13.192;2023-04-08T08:41:40;8.50;99.90
9810;DHT22;4944;52.514;13.192;2023-04-08T08:44:07;8.60;99.90
9810;DHT22;4944;52.514;13.192;2023-04-08T08:46:34;8.60;99.90
9810;DHT22;4944;52.514;13.192;2023-04-08T08:49:02;8.70;99.90
9810;DHT22;4944;52.514;13.192;2023-04-08T08:51:30;8.70;99.90
9810;DHT22;4944;52.514;13.192;2023-04-08T08:54:01;8.80;99.90
9810;DHT22;4944;52.514;13.192;2023-04-08T08:56:28;8.80;99.90
9810;DHT22;4944;52.514;13.192;2023-04-08T08:58:55;8.90;99.90
9810;DHT22;4944;52.514;13.192;2023-04-08T09:01:29;9.00;99.90
9810;DHT22;4944;52.514;13.192;2023-04-08T09:04:09;9.00;99.90
9810;DHT22;4944;52.514;13.192;2023-04-08T09:06:37;9.00;99.90
9810;DHT22;4944;52.514;13.192;2023-04-08T09:09:04;9.00;99.90
9810;DHT22;4944;52.514;13.192;2023-04-08T09:11:35;9.10;99.90
9810;DHT22;4944;52.514;13.192;2023-04-08T09:14:03;9.10;99.90
9810;DHT22;4944;52.514;13.192;2023-04-08T09:16:31;9.20;99.90
9810;DHT22;4944;52.514;13.192;2023-04-08T09:19:09;9.10;99.90
9810;DHT22;4944;52.514;13.192;2023-04-08T09:21:37;9.20;99.90
9810;DHT22;4944;52.514;13.192;2023-04-08T09:24:06;9.20;99.90
9810;DHT22;4944;52.514;13.192;2023-04-08T09:26:33;9.20;99.90
9810;DHT22;4944;52.514;13.192;2023-04-08T09:29:01;9.20;99.90
9810;DHT22;4944;52.514;13.192;2023-04-08T09:31:29;9.30;99.90
9810;DHT22;4944;52.514;13.192;2023-04-08T09:33:58;9.30;99.90
9810;DHT22;4944;52.514;13.192;2023-04-08T09:36:26;9.30;99.90
9810;DHT22;4944;52.514;13.192;2023-04-08T09:38:54;9.30;99.90
9810;DHT22;4944;52.514;13.192;2023-04-08T09:41:22;9.30;99.90
9810;DHT22;4944;52.514;13.192;2023-04-08T09:43:52;9.30;99.90
9810;DHT22;4944;52.514;13.192;2023-04-08T09:46:26;9.30;99.90
9810;DHT22;4944;52.514;13.192;2023-04-08T09:49:01;9.40;99.90
9810;DHT22;4944;52.514;13.192;2023-04-08T09:51:37;9.40;99.90
9810;DHT22;4944;52.514;13.192;2023-04-08T09:54:11;9.40;99.90
9810;DHT22;4944;52.514;13.192;2023-04-08T09:56:43;9.50;99.90
9810;DHT22;4944;52.514;13.192;2023-04-08T09:59:14;9.50;99.90
9810;DHT22;4944;52.514;13.192;2023-04-08T10:01:46;9.50;99.90
9810;DHT22;4944;52.514;13.192;2023-04-08T10:04:18;9.50;99.90
9810;DHT22;4944;52.514;13.192;2023-04-08T10:06:51;9.50;99.90
9810;DHT22;4944;52.514;13.192;2023-04-08T10:09:20;9.50;99.90
9810;DHT22;4944;52.514;13.192;2023-04-08T10:11:48;9.50;99.90
9810;DHT22;4944;52.514;13.192;2023-04-08T10:14:15;9.40;99.90
9810;DHT22;4944;52.514;13.192;2023-04-08T10:16:42;9.40;99.90
9810;DHT22;4944;52.514;13.192;2023-04-08T10:19:35;9.40;99.90
9810;DHT22;4944;52.514;13.192;2023-04-08T10:22:47;9.40;99.90
9810;DHT22;4944;52.514;13.192;2023-04-08T10:25:31;9.40;99.90
9810;DHT22;4944;52.514;13.192;2023-04-08T10:27:58;9.50;99.90
9810;DHT22;4944;52.514;13.192;2023-04-08T10:30:39;9.50;99.90
9810;DHT22;4944;52.514;13.192;2023-04-08T10:33:10;9.50;99.90
9810;DHT22;4944;52.514;13.192;2023-04-08T10:35:41;9.50;99.90
9810;DHT22;4944;52.514;13.192;2023-04-08T10:38:12;9.50;99.90
9810;DHT22;4944;52.514;13.192;2023-04-08T10:40:40;9.60;99.90
9810;DHT22;4944;52.514;13.192;2023-04-08T10:43:08;9.60;99.90
9810;DHT22;4944;52.514;13.192;2023-04-08T10:45:35;9.50;99.90
9810;DHT22;4944;52.514;13.192;2023-04-08T10:48:16;9.50;99.90
9810;DHT22;4944;52.514;13.192;2023-04-08T10:50:44;9.60;99.90
9810;DHT22;4944;52.514;13.192;2023-04-08T10:53:23;9.70;99.90
9810;DHT22;4944;52.514;13.192;2023-04-08T10:55:51;9.90;99.90
9810;DHT22;4944;52.514;13.192;2023-04-08T10:58:18;10.00;99.90
9810;DHT22;4944;52.514;13.192;2023-04-08T11:00:45;10.10;99.90
9810;DHT22;4944;52.514;13.192;2023-04-08T11:03:12;10.20;99.90
9810;DHT22;4944;52.514;13.192;2023-04-08T11:05:39;10.30;99.90
9810;DHT22;4944;52.514;13.192;2023-04-08T11:08:06;10.40;99.90
9810;DHT22;4944;52.514;13.192;2023-04-08T11:10:37;10.40;99.90
9810;DHT22;4944;52.514;13.192;2023-04-08T11:13:06;10.50;99.90
9810;DHT22;4944;52.514;13.192;2023-04-08T11:15:34;10.60;99.90
9810;DHT22;4944;52.514;13.192;2023-04-08T11:18:02;10.60;99.90
9810;DHT22;4944;52.514;13.192;2023-04-08T11:20:29;10.60;99.90
9810;DHT22;4944;52.514;13.192;2023-04-08T11:22:56;10.70;99.90
9810;DHT22;4944;52.514;13.192;2023-04-08T11:25:23;10.70;99.90
9810;DHT22;4944;52.514;13.192;2023-04-08T11:27:52;10.70;99.90
9810;DHT22;4944;52.514;13.192;2023-04-08T11:30:19;10.70;99.90
9810;DHT22;4944;52.514;13.192;2023-04-08T11:32:47;10.70;99.90
9810;DHT22;4944;52.514;13.192;2023-04-08T11:35:16;10.70;99.90
9810;DHT22;4944;52.514;13.192;2023-04-08T11:37:43;10.70;99.90
9810;DHT22;4944;52.514;13.192;2023-04-08T11:40:12;10.70;99.90
9810;DHT22;4944;52.514;13.192;2023-04-08T11:42:39;10.80;99.90
9810;DHT22;4944;52.514;13.192;2023-04-08T11:45:11;10.90;99.90
9810;DHT22;4944;52.514;13.192;2023-04-08T11:47:39;10.90;99.90
9810;DHT22;4944;52.514;13.192;2023-04-08T11:50:07;11.00;99.90
9810;DHT22;4944;52.514;13.192;2023-04-08T11:52:44;11.00;99.90
9810;DHT22;4944;52.514;13.192;2023-04-08T11:55:12;11.00;99.90
9810;DHT22;4944;52.514;13.192;2023-04-08T11:57:47;11.00;99.90
9810;DHT22;4944;52.514;13.192;2023-04-08T12:00:15;10.90;99.90
9810;DHT22;4944;52.514;13.192;2023-04-08T12:02:42;10.90;99.90
9810;DHT22;4944;52.514;13.192;2023-04-08T12:05:09;11.00;99.90
9810;DHT22;4944;52.514;13.192;2023-04-08T12:07:36;11.00;99.90
9810;DHT22;4944;52.514;13.192;2023-04-08T12:10:03;11.10;99.90
9810;DHT22;4944;52.514;13.192;2023-04-08T12:12:30;11.20;99.90
9810;DHT22;4944;52.514;13.192;2023-04-08T12:14:57;11.40;99.90
9810;DHT22;4944;52.514;13.192;2023-04-08T12:17:26;11.40;99.90
9810;DHT22;4944;52.514;13.192;2023-04-08T12:19:53;11.50;99.90
9810;DHT22;4944;52.514;13.192;2023-04-08T12:22:19;11.60;99.90
9810;DHT22;4944;52.514;13.192;2023-04-08T12:24:46;11.70;99.90
9810;DHT22;4944;52.514;13.192;2023-04-08T12:27:13;11.90;99.90
9810;DHT22;4944;52.514;13.192;2023-04-08T12:29:40;12.00;99.90
9810;DHT22;4944;52.514;13.192;2023-04-08T12:32:08;12.00;99.90
9810;DHT22;4944;52.514;13.192;2023-04-08T12:34:36;12.20;99.90
9810;DHT22;4944;52.514;13.192;2023-04-08T12:37:03;12.20;99.90
9810;DHT22;4944;52.514;13.192;2023-04-08T12:39:30;12.20;99.90
9810;DHT22;4944;52.514;13.192;2023-04-08T12:41:57;12.20;99.90
9810;DHT22;4944;52.514;13.192;2023-04-08T12:44:24;12.30;99.90
9810;DHT22;4944;52.514;13.192;2023-04-08T12:46:51;12.40;99.90
9810;DHT22;4944;52.514;13.192;2023-04-08T12:49:18;12.60;99.90
9810;DHT22;4944;52.514;13.192;2023-04-08T12:51:46;12.80;99.90
9810;DHT22;4944;52.514;13.192;2023-04-08T12:54:13;12.90;99.90
9810;DHT22;4944;52.514;13.192;2023-04-08T12:56:41;13.10;99.90
9810;DHT22;4944;52.514;13.192;2023-04-08T12:59:08;13.30;99.90
9810;DHT22;4944;52.514;13.192;2023-04-08T13:01:35;13.50;99.90
9810;DHT22;4944;52.514;13.192;2023-04-08T13:04:02;13.80;99.90
9810;DHT22;4944;52.514;13.192;2023-04-08T13:06:29;14.10;99.90
9810;DHT22;4944;52.514;13.192;2023-04-08T13:08:58;14.20;99.90
9810;DHT22;4944;52.514;13.192;2023-04-08T13:11:25;14.10;99.90
9810;DHT22;4944;52.514;13.192;2023-04-08T13:13:52;13.90;99.90
9810;DHT22;4944;52.514;13.192;2023-04-08T13:16:19;13.80;99.90
9810;DHT22;4944;52.514;13.192;2023-04-08T13:18:46;13.50;99.90
9810;DHT22;4944;52.514;13.192;2023-04-08T13:21:13;13.60;99.90
9810;DHT22;4944;52.514;13.192;2023-04-08T13:23:40;13.80;99.90
9810;DHT22;4944;52.514;13.192;2023-04-08T13:26:08;14.00;99.90
9810;DHT22;4944;52.514;13.192;2023-04-08T13:28:35;14.20;99.90
9810;DHT22;4944;52.514;13.192;2023-04-08T13:31:02;14.10;99.90
9810;DHT22;4944;52.514;13.192;2023-04-08T13:33:28;14.00;99.90
9810;DHT22;4944;52.514;13.192;2023-04-08T13:35:55;13.70;99.90
9810;DHT22;4944;52.514;13.192;2023-04-08T13:38:22;13.50;99.90
9810;DHT22;4944;52.514;13.192;2023-04-08T13:40:50;13.40;99.90
9810;DHT22;4944;52.514;13.192;2023-04-08T13:43:18;13.60;99.90
9810;DHT22;4944;52.514;13.192;2023-04-08T13:45:45;13.90;99.90
9810;DHT22;4944;52.514;13.192;2023-04-08T13:48:12;14.20;99.90
9810;DHT22;4944;52.514;13.192;2023-04-08T13:50:39;14.40;99.90
9810;DHT22;4944;52.514;13.192;2023-04-08T13:53:06;14.60;99.90
9810;DHT22;4944;52.514;13.192;2023-04-08T13:55:33;14.80;99.90
9810;DHT22;4944;52.514;13.192;2023-04-08T13:58:00;15.00;99.90
9810;DHT22;4944;52.514;13.192;2023-04-08T14:00:29;15.20;99.90
9810;DHT22;4944;52.514;13.192;2023-04-08T14:02:57;15.30;99.90
9810;DHT22;4944;52.514;13.192;2023-04-08T14:05:24;15.30;99.90
9810;DHT22;4944;52.514;13.192;2023-04-08T14:07:51;15.40;99.90
9810;DHT22;4944;52.514;13.192;2023-04-08T14:10:18;15.60;99.90
9810;DHT22;4944;52.514;13.192;2023-04-08T14:12:45;15.50;99.90
9810;DHT22;4944;52.514;13.192;2023-04-08T14:15:12;15.60;99.90
9810;DHT22;4944;52.514;13.192;2023-04-08T14:17:40;15.60;99.90
9810;DHT22;4944;52.514;13.192;2023-04-08T14:20:08;15.60;99.90
9810;DHT22;4944;52.514;13.192;2023-04-08T14:22:35;15.70;99.90
9810;DHT22;4944;52.514;13.192;2023-04-08T14:25:02;15.90;99.90
9810;DHT22;4944;52.514;13.192;2023-04-08T14:27:29;16.00;99.90
9810;DHT22;4944;52.514;13.192;2023-04-08T14:29:56;16.20;99.90
9810;DHT22;4944;52.514;13.192;2023-04-08T14:32:23;16.20;99.90
9810;DHT22;4944;52.514;13.192;2023-04-08T14:34:51;16.30;99.90
9810;DHT22;4944;52.514;13.192;2023-04-08T14:37:19;16.50;99.90
9810;DHT22;4944;52.514;13.192;2023-04-08T14:39:45;16.60;99.90
9810;DHT22;4944;52.514;13.192;2023-04-08T14:42:12;16.50;99.90
9810;DHT22;4944;52.514;13.192;2023-04-08T14:44:41;16.60;99.90
9810;DHT22;4944;52.514;13.192;2023-04-08T14:47:08;16.70;99.90
9810;DHT22;4944;52.514;13.192;2023-04-08T14:49:36;16.60;99.90
9810;DHT22;4944;52.514;13.192;2023-04-08T14:52:04;16.50;99.90
9810;DHT22;4944;52.514;13.192;2023-04-08T14:54:31;16.30;99.90
9810;DHT22;4944;52.514;13.192;2023-04-08T14:56:58;16.00;99.90
9810;DHT22;4944;52.514;13.192;2023-04-08T14:59:25;15.80;99.90
9810;DHT22;4944;52.514;13.192;2023-04-08T15:01:52;15.70;99.90
9810;DHT22;4944;52.514;13.192;2023-04-08T15:04:19;15.80;99.90
9810;DHT22;4944;52.514;13.192;2023-04-08T15:06:46;16.00;99.90
9810;DHT22;4944;52.514;13.192;2023-04-08T15:09:14;16.10;99.90
9810;DHT22;4944;52.514;13.192;2023-04-08T15:11:41;16.10;99.90
9810;DHT22;4944;52.514;13.192;2023-04-08T15:14:08;16.20;99.90
9810;DHT22;4944;52.514;13.192;2023-04-08T15:16:35;16.20;99.90
9810;DHT22;4944;52.514;13.192;2023-04-08T15:19:02;16.20;99.90
9810;DHT22;4944;52.514;13.192;2023-04-08T15:21:30;16.20;99.90
9810;DHT22;4944;52.514;13.192;2023-04-08T15:23:57;16.10;99.90
9810;DHT22;4944;52.514;13.192;2023-04-08T15:26:25;16.10;99.90
9810;DHT22;4944;52.514;13.192;2023-04-08T15:28:53;16.00;99.90
9810;DHT22;4944;52.514;13.192;2023-04-08T15:31:21;15.70;99.90
9810;DHT22;4944;52.514;13.192;2023-04-08T15:33:48;15.50;99.90
9810;DHT22;4944;52.514;13.192;2023-04-08T15:36:15;15.20;99.90
9810;DHT22;4944;52.514;13.192;2023-04-08T15:38:44;15.00;99.90
9810;DHT22;4944;52.514;13.192;2023-04-08T15:41:14;14.80;99.90
9810;DHT22;4944;52.514;13.192;2023-04-08T15:43:44;14.70;99.90
9810;DHT22;4944;52.514;13.192;2023-04-08T15:46:13;14.70;99.90
9810;DHT22;4944;52.514;13.192;2023-04-08T15:48:42;14.80;99.90
9810;DHT22;4944;52.514;13.192;2023-04-08T15:51:09;15.00;99.90
9810;DHT22;4944;52.514;13.192;2023-04-08T15:53:37;15.10;99.90
9810;DHT22;4944;52.514;13.192;2023-04-08T15:56:05;15.30;99.90
9810;DHT22;4944;52.514;13.192;2023-04-08T15:58:33;15.40;99.90
9810;DHT22;4944;52.514;13.192;2023-04-08T16:01:01;15.50;99.90
9810;DHT22;4944;52.514;13.192;2023-04-08T16:03:28;15.50;99.90